Main page
METAR-TAF:

METAR-TAF

Airports :

Islay Airport

Islay, Scotland

latitude: 55-40-55N, longitude: 006-15-24W, elevation: 16 m

Current weather observation

The report was made 28 minutes ago, at 04:20 UTC
Wind 10 kt from the East/Northeast
Temperature 6°C
Humidity 93%
Pressure 992 hPa
Visibility 10 km or more

METAR: EGPI 240420Z AUTO 07010KT 9999 NCD 06/05 Q0992

Time: 05:48 (04:48 UTC)

Forecast

The report was made 2 hours and 52 minutes ago, at 01:56 UTC
Forecast valid from 24 at 03 UTC to 24 at 12 UTC
Wind 8 kt from the East
Visibility 10 km or more
Few clouds at a height of 3500 ft

TAF: EGPI 240156Z 2403/2412 08008KT 9999 FEW035

Weather observations and forecasts of more than 4000 airports (METAR and TAF reports).

The available stations are represented by yellow and red dots on the map.

Hover mouse over dot to see the name of the station.

Then click to see weather observations and forecasts.

To change the map : click on the green buttons with a black cross to zoom in, on the green button with a dash to zoom out, or on the green arrows for adjacent maps.


METAR-TAF: